sensor_id;sensor_type;location;lat;lon;timestamp;P1;durP1;ratioP1;P2;durP2;ratioP2
37205;SDS011;23099;42.636;23.198;2022-08-05T00:01:13;5.05;;;2.78;;
37205;SDS011;23099;42.636;23.198;2022-08-05T00:03:41;4.43;;;2.35;;
37205;SDS011;23099;42.636;23.198;2022-08-05T00:06:08;4.82;;;2.67;;
37205;SDS011;23099;42.636;23.198;2022-08-05T00:08:35;6.68;;;3.05;;
37205;SDS011;23099;42.636;23.198;2022-08-05T00:11:04;5.70;;;2.65;;
37205;SDS011;23099;42.636;23.198;2022-08-05T00:13:32;6.78;;;2.67;;
37205;SDS011;23099;42.636;23.198;2022-08-05T00:15:59;5.43;;;2.78;;
37205;SDS011;23099;42.636;23.198;2022-08-05T00:18:26;6.63;;;2.92;;
37205;SDS011;23099;42.636;23.198;2022-08-05T00:20:53;6.05;;;2.22;;
37205;SDS011;23099;42.636;23.198;2022-08-05T00:23:21;4.32;;;2.30;;
37205;SDS011;23099;42.636;23.198;2022-08-05T00:25:48;5.20;;;2.22;;
37205;SDS011;23099;42.636;23.198;2022-08-05T00:28:17;4.60;;;2.38;;
37205;SDS011;23099;42.636;23.198;2022-08-05T00:30:44;5.20;;;2.50;;
37205;SDS011;23099;42.636;23.198;2022-08-05T00:33:11;6.32;;;2.42;;
37205;SDS011;23099;42.636;23.198;2022-08-05T00:35:38;5.20;;;2.75;;
37205;SDS011;23099;42.636;23.198;2022-08-05T00:38:05;4.45;;;2.42;;
37205;SDS011;23099;42.636;23.198;2022-08-05T00:40:32;4.88;;;2.63;;
37205;SDS011;23099;42.636;23.198;2022-08-05T00:42:59;5.43;;;3.20;;
37205;SDS011;23099;42.636;23.198;2022-08-05T00:45:29;4.57;;;2.75;;
37205;SDS011;23099;42.636;23.198;2022-08-05T00:47:55;5.63;;;2.95;;
37205;SDS011;23099;42.636;23.198;2022-08-05T00:50:22;6.65;;;2.97;;
37205;SDS011;23099;42.636;23.198;2022-08-05T00:52:49;7.05;;;2.95;;
37205;SDS011;23099;42.636;23.198;2022-08-05T00:55:16;5.20;;;2.85;;
37205;SDS011;23099;42.636;23.198;2022-08-05T00:57:42;8.65;;;2.80;;
37205;SDS011;23099;42.636;23.198;2022-08-05T01:00:09;5.07;;;2.63;;
37205;SDS011;23099;42.636;23.198;2022-08-05T01:02:38;7.55;;;2.95;;
37205;SDS011;23099;42.636;23.198;2022-08-05T01:05:05;5.80;;;2.50;;
37205;SDS011;23099;42.636;23.198;2022-08-05T01:07:33;6.18;;;2.88;;
37205;SDS011;23099;42.636;23.198;2022-08-05T01:10:00;6.07;;;3.15;;
37205;SDS011;23099;42.636;23.198;2022-08-05T01:12:27;6.88;;;3.08;;
37205;SDS011;23099;42.636;23.198;2022-08-05T01:14:56;6.22;;;2.75;;
37205;SDS011;23099;42.636;23.198;2022-08-05T01:17:28;5.97;;;3.05;;
37205;SDS011;23099;42.636;23.198;2022-08-05T01:20:02;5.60;;;3.00;;
37205;SDS011;23099;42.636;23.198;2022-08-05T01:22:40;4.90;;;2.75;;
37205;SDS011;23099;42.636;23.198;2022-08-05T01:25:20;8.90;;;3.00;;
37205;SDS011;23099;42.636;23.198;2022-08-05T01:28:05;5.30;;;2.50;;
37205;SDS011;23099;42.636;23.198;2022-08-05T01:30:45;6.82;;;2.92;;
37205;SDS011;23099;42.636;23.198;2022-08-05T01:33:16;5.55;;;2.95;;
37205;SDS011;23099;42.636;23.198;2022-08-05T01:35:46;7.10;;;3.30;;
37205;SDS011;23099;42.636;23.198;2022-08-05T01:38:15;6.35;;;2.78;;
37205;SDS011;23099;42.636;23.198;2022-08-05T01:40:43;7.13;;;2.85;;
37205;SDS011;23099;42.636;23.198;2022-08-05T01:43:13;5.07;;;2.78;;
37205;SDS011;23099;42.636;23.198;2022-08-05T01:45:41;4.93;;;2.83;;
37205;SDS011;23099;42.636;23.198;2022-08-05T01:48:09;6.40;;;2.63;;
37205;SDS011;23099;42.636;23.198;2022-08-05T01:50:36;8.23;;;3.25;;
37205;SDS011;23099;42.636;23.198;2022-08-05T01:53:05;5.20;;;2.90;;
37205;SDS011;23099;42.636;23.198;2022-08-05T01:55:37;5.50;;;3.20;;
37205;SDS011;23099;42.636;23.198;2022-08-05T01:58:06;7.15;;;3.10;;
37205;SDS011;23099;42.636;23.198;2022-08-05T02:00:38;6.30;;;2.75;;
37205;SDS011;23099;42.636;23.198;2022-08-05T02:03:10;6.65;;;3.05;;
37205;SDS011;23099;42.636;23.198;2022-08-05T02:05:41;5.72;;;3.30;;
37205;SDS011;23099;42.636;23.198;2022-08-05T02:08:10;8.63;;;2.90;;
37205;SDS011;23099;42.636;23.198;2022-08-05T02:10:38;6.50;;;3.67;;
37205;SDS011;23099;42.636;23.198;2022-08-05T02:13:10;4.95;;;2.88;;
37205;SDS011;23099;42.636;23.198;2022-08-05T02:15:42;4.97;;;2.83;;
37205;SDS011;23099;42.636;23.198;2022-08-05T02:18:13;5.20;;;3.00;;
37205;SDS011;23099;42.636;23.198;2022-08-05T02:20:47;5.13;;;2.85;;
37205;SDS011;23099;42.636;23.198;2022-08-05T02:23:22;7.45;;;3.10;;
37205;SDS011;23099;42.636;23.198;2022-08-05T02:25:51;4.93;;;2.60;;
37205;SDS011;23099;42.636;23.198;2022-08-05T02:28:21;7.57;;;2.88;;
37205;SDS011;23099;42.636;23.198;2022-08-05T02:30:56;7.55;;;3.45;;
37205;SDS011;23099;42.636;23.198;2022-08-05T02:33:25;5.07;;;2.88;;
37205;SDS011;23099;42.636;23.198;2022-08-05T02:35:52;8.98;;;3.35;;
37205;SDS011;23099;42.636;23.198;2022-08-05T02:38:23;6.68;;;3.08;;
37205;SDS011;23099;42.636;23.198;2022-08-05T02:40:53;6.47;;;2.97;;
37205;SDS011;23099;42.636;23.198;2022-08-05T02:43:20;5.70;;;3.10;;
37205;SDS011;23099;42.636;23.198;2022-08-05T02:45:49;5.47;;;2.75;;
37205;SDS011;23099;42.636;23.198;2022-08-05T02:48:18;6.95;;;3.15;;
37205;SDS011;23099;42.636;23.198;2022-08-05T02:50:46;4.93;;;3.00;;
37205;SDS011;23099;42.636;23.198;2022-08-05T02:53:15;5.13;;;3.10;;
37205;SDS011;23099;42.636;23.198;2022-08-05T02:55:45;5.78;;;2.90;;
37205;SDS011;23099;42.636;23.198;2022-08-05T02:58:13;5.50;;;3.20;;
37205;SDS011;23099;42.636;23.198;2022-08-05T03:00:41;6.25;;;3.22;;
37205;SDS011;23099;42.636;23.198;2022-08-05T03:03:10;6.63;;;3.45;;
37205;SDS011;23099;42.636;23.198;2022-08-05T03:05:41;8.38;;;3.97;;
37205;SDS011;23099;42.636;23.198;2022-08-05T03:08:08;9.05;;;3.60;;
37205;SDS011;23099;42.636;23.198;2022-08-05T03:10:36;6.40;;;3.38;;
37205;SDS011;23099;42.636;23.198;2022-08-05T03:13:09;7.00;;;3.13;;
37205;SDS011;23099;42.636;23.198;2022-08-05T03:15:37;6.03;;;3.60;;
37205;SDS011;23099;42.636;23.198;2022-08-05T03:18:06;6.80;;;3.65;;
37205;SDS011;23099;42.636;23.198;2022-08-05T03:20:33;6.35;;;3.65;;
37205;SDS011;23099;42.636;23.198;2022-08-05T03:23:01;6.82;;;3.45;;
37205;SDS011;23099;42.636;23.198;2022-08-05T03:25:31;6.07;;;3.40;;
37205;SDS011;23099;42.636;23.198;2022-08-05T03:27:58;6.00;;;3.53;;
37205;SDS011;23099;42.636;23.198;2022-08-05T03:30:26;6.32;;;3.30;;
37205;SDS011;23099;42.636;23.198;2022-08-05T03:32:53;6.40;;;3.83;;
37205;SDS011;23099;42.636;23.198;2022-08-05T03:35:20;7.53;;;3.70;;
37205;SDS011;23099;42.636;23.198;2022-08-05T03:37:47;7.97;;;3.95;;
37205;SDS011;23099;42.636;23.198;2022-08-05T03:40:15;6.85;;;3.25;;
37205;SDS011;23099;42.636;23.198;2022-08-05T03:42:42;7.10;;;3.50;;
37205;SDS011;23099;42.636;23.198;2022-08-05T03:45:09;8.10;;;4.15;;
37205;SDS011;23099;42.636;23.198;2022-08-05T03:47:36;8.85;;;3.90;;
37205;SDS011;23099;42.636;23.198;2022-08-05T03:50:02;7.47;;;3.38;;
37205;SDS011;23099;42.636;23.198;2022-08-05T03:52:31;5.28;;;3.28;;
37205;SDS011;23099;42.636;23.198;2022-08-05T03:55:01;7.18;;;4.10;;
37205;SDS011;23099;42.636;23.198;2022-08-05T03:57:35;9.88;;;3.70;;
37205;SDS011;23099;42.636;23.198;2022-08-05T04:00:05;6.25;;;3.42;;
37205;SDS011;23099;42.636;23.198;2022-08-05T04:02:34;6.63;;;3.80;;
37205;SDS011;23099;42.636;23.198;2022-08-05T04:05:03;7.22;;;4.13;;
37205;SDS011;23099;42.636;23.198;2022-08-05T04:07:32;7.35;;;4.15;;
37205;SDS011;23099;42.636;23.198;2022-08-05T04:09:59;8.45;;;4.03;;
37205;SDS011;23099;42.636;23.198;2022-08-05T04:12:27;5.88;;;3.47;;
37205;SDS011;23099;42.636;23.198;2022-08-05T04:14:55;6.93;;;3.28;;
37205;SDS011;23099;42.636;23.198;2022-08-05T04:17:22;9.93;;;3.72;;
37205;SDS011;23099;42.636;23.198;2022-08-05T04:19:49;5.95;;;3.50;;
37205;SDS011;23099;42.636;23.198;2022-08-05T04:22:16;6.57;;;3.95;;
37205;SDS011;23099;42.636;23.198;2022-08-05T04:24:43;9.07;;;3.75;;
37205;SDS011;23099;42.636;23.198;2022-08-05T04:27:11;12.88;;;4.88;;
37205;SDS011;23099;42.636;23.198;2022-08-05T04:29:38;8.40;;;4.10;;
37205;SDS011;23099;42.636;23.198;2022-08-05T04:32:07;6.50;;;3.65;;
37205;SDS011;23099;42.636;23.198;2022-08-05T04:34:34;6.20;;;3.35;;
37205;SDS011;23099;42.636;23.198;2022-08-05T04:37:01;6.50;;;3.70;;
37205;SDS011;23099;42.636;23.198;2022-08-05T04:39:28;7.38;;;4.10;;
37205;SDS011;23099;42.636;23.198;2022-08-05T04:41:55;17.08;;;8.93;;
37205;SDS011;23099;42.636;23.198;2022-08-05T04:44:22;22.67;;;11.85;;
37205;SDS011;23099;42.636;23.198;2022-08-05T04:46:49;11.32;;;5.68;;
37205;SDS011;23099;42.636;23.198;2022-08-05T04:49:17;9.98;;;4.72;;
37205;SDS011;23099;42.636;23.198;2022-08-05T04:51:44;8.00;;;4.10;;
37205;SDS011;23099;42.636;23.198;2022-08-05T04:54:10;7.18;;;5.07;;
37205;SDS011;23099;42.636;23.198;2022-08-05T04:56:38;8.15;;;4.90;;
37205;SDS011;23099;42.636;23.198;2022-08-05T04:59:05;7.43;;;4.43;;
37205;SDS011;23099;42.636;23.198;2022-08-05T05:01:32;8.57;;;4.78;;
37205;SDS011;23099;42.636;23.198;2022-08-05T05:03:59;6.95;;;4.32;;
37205;SDS011;23099;42.636;23.198;2022-08-05T05:06:27;8.82;;;6.03;;
37205;SDS011;23099;42.636;23.198;2022-08-05T05:08:54;10.00;;;4.95;;
37205;SDS011;23099;42.636;23.198;2022-08-05T05:11:21;8.48;;;4.25;;
37205;SDS011;23099;42.636;23.198;2022-08-05T05:13:47;5.40;;;3.30;;
37205;SDS011;23099;42.636;23.198;2022-08-05T05:16:14;6.30;;;3.17;;
37205;SDS011;23099;42.636;23.198;2022-08-05T05:18:41;5.85;;;3.25;;
37205;SDS011;23099;42.636;23.198;2022-08-05T05:21:08;5.75;;;3.13;;
37205;SDS011;23099;42.636;23.198;2022-08-05T05:23:36;6.25;;;2.75;;
37205;SDS011;23099;42.636;23.198;2022-08-05T05:26:03;7.53;;;3.50;;
37205;SDS011;23099;42.636;23.198;2022-08-05T05:28:30;5.85;;;3.10;;
37205;SDS011;23099;42.636;23.198;2022-08-05T05:30:57;7.20;;;3.13;;
37205;SDS011;23099;42.636;23.198;2022-08-05T05:33:24;7.10;;;3.22;;
37205;SDS011;23099;42.636;23.198;2022-08-05T05:35:51;5.82;;;3.53;;
37205;SDS011;23099;42.636;23.198;2022-08-05T05:38:18;6.53;;;3.38;;
37205;SDS011;23099;42.636;23.198;2022-08-05T05:40:46;5.68;;;3.15;;
37205;SDS011;23099;42.636;23.198;2022-08-05T05:43:12;5.30;;;3.20;;
37205;SDS011;23099;42.636;23.198;2022-08-05T05:45:39;7.78;;;3.78;;
37205;SDS011;23099;42.636;23.198;2022-08-05T12:35:27;4.20;;;2.22;;
37205;SDS011;23099;42.636;23.198;2022-08-05T12:37:55;6.70;;;2.33;;
37205;SDS011;23099;42.636;23.198;2022-08-05T12:40:21;6.32;;;2.30;;
37205;SDS011;23099;42.636;23.198;2022-08-05T12:42:53;4.38;;;2.10;;
37205;SDS011;23099;42.636;23.198;2022-08-05T12:47:47;8.38;;;2.53;;
37205;SDS011;23099;42.636;23.198;2022-08-05T12:50:15;4.47;;;2.20;;
37205;SDS011;23099;42.636;23.198;2022-08-05T12:52:53;6.25;;;2.17;;
37205;SDS011;23099;42.636;23.198;2022-08-05T12:55:21;5.60;;;2.20;;
37205;SDS011;23099;42.636;23.198;2022-08-05T12:57:50;4.47;;;2.20;;
37205;SDS011;23099;42.636;23.198;2022-08-05T13:00:21;4.70;;;2.15;;
37205;SDS011;23099;42.636;23.198;2022-08-05T13:02:49;3.45;;;1.92;;
37205;SDS011;23099;42.636;23.198;2022-08-05T13:05:17;5.40;;;2.35;;
37205;SDS011;23099;42.636;23.198;2022-08-05T13:07:44;5.10;;;2.25;;
37205;SDS011;23099;42.636;23.198;2022-08-05T13:10:13;6.32;;;1.95;;
37205;SDS011;23099;42.636;23.198;2022-08-05T13:12:41;5.18;;;2.10;;
37205;SDS011;23099;42.636;23.198;2022-08-05T13:15:09;4.68;;;1.80;;
37205;SDS011;23099;42.636;23.198;2022-08-05T13:17:37;5.18;;;2.10;;
37205;SDS011;23099;42.636;23.198;2022-08-05T13:20:05;6.00;;;2.30;;
37205;SDS011;23099;42.636;23.198;2022-08-05T13:22:34;4.03;;;2.47;;
37205;SDS011;23099;42.636;23.198;2022-08-05T13:25:03;5.88;;;2.40;;
37205;SDS011;23099;42.636;23.198;2022-08-05T13:27:33;5.65;;;2.67;;
37205;SDS011;23099;42.636;23.198;2022-08-05T13:30:03;6.57;;;2.40;;
37205;SDS011;23099;42.636;23.198;2022-08-05T13:32:31;5.82;;;2.35;;
37205;SDS011;23099;42.636;23.198;2022-08-05T13:34:58;4.63;;;2.40;;
37205;SDS011;23099;42.636;23.198;2022-08-05T13:37:24;4.97;;;2.60;;
37205;SDS011;23099;42.636;23.198;2022-08-05T13:39:51;6.88;;;2.70;;
37205;SDS011;23099;42.636;23.198;2022-08-05T13:42:18;4.67;;;2.30;;
37205;SDS011;23099;42.636;23.198;2022-08-05T13:44:49;5.27;;;2.40;;
37205;SDS011;23099;42.636;23.198;2022-08-05T13:47:17;6.70;;;2.40;;
37205;SDS011;23099;42.636;23.198;2022-08-05T13:49:44;7.40;;;2.55;;
37205;SDS011;23099;42.636;23.198;2022-08-05T13:52:11;5.53;;;2.15;;
37205;SDS011;23099;42.636;23.198;2022-08-05T13:57:06;7.55;;;2.75;;
37205;SDS011;23099;42.636;23.198;2022-08-05T13:59:34;4.97;;;2.70;;
37205;SDS011;23099;42.636;23.198;2022-08-05T14:02:03;5.25;;;2.38;;
37205;SDS011;23099;42.636;23.198;2022-08-05T14:04:31;8.10;;;2.47;;
37205;SDS011;23099;42.636;23.198;2022-08-05T14:07:20;4.75;;;2.60;;
37205;SDS011;23099;42.636;23.198;2022-08-05T14:09:48;6.85;;;2.80;;
37205;SDS011;23099;42.636;23.198;2022-08-05T14:12:15;4.50;;;2.40;;
37205;SDS011;23099;42.636;23.198;2022-08-05T14:14:42;5.10;;;2.10;;
37205;SDS011;23099;42.636;23.198;2022-08-05T14:17:10;4.88;;;2.28;;
37205;SDS011;23099;42.636;23.198;2022-08-05T14:19:37;4.53;;;2.05;;
37205;SDS011;23099;42.636;23.198;2022-08-05T14:22:04;4.28;;;2.28;;
37205;SDS011;23099;42.636;23.198;2022-08-05T14:24:31;5.25;;;2.08;;
37205;SDS011;23099;42.636;23.198;2022-08-05T14:26:58;10.20;;;2.10;;
37205;SDS011;23099;42.636;23.198;2022-08-05T14:29:25;3.60;;;2.17;;
37205;SDS011;23099;42.636;23.198;2022-08-05T14:31:51;8.02;;;2.10;;
37205;SDS011;23099;42.636;23.198;2022-08-05T14:34:20;6.10;;;2.10;;
37205;SDS011;23099;42.636;23.198;2022-08-05T14:36:46;5.22;;;1.90;;
37205;SDS011;23099;42.636;23.198;2022-08-05T14:39:13;4.30;;;1.98;;
37205;SDS011;23099;42.636;23.198;2022-08-05T14:41:40;5.95;;;2.15;;
37205;SDS011;23099;42.636;23.198;2022-08-05T14:44:07;5.25;;;2.40;;
37205;SDS011;23099;42.636;23.198;2022-08-05T14:46:33;6.20;;;2.25;;
37205;SDS011;23099;42.636;23.198;2022-08-05T14:49:00;5.70;;;2.35;;
37205;SDS011;23099;42.636;23.198;2022-08-05T14:51:30;4.72;;;2.25;;
37205;SDS011;23099;42.636;23.198;2022-08-05T14:53:56;6.78;;;2.03;;
37205;SDS011;23099;42.636;23.198;2022-08-05T14:56:23;4.40;;;2.05;;
37205;SDS011;23099;42.636;23.198;2022-08-05T14:58:50;3.80;;;1.98;;
37205;SDS011;23099;42.636;23.198;2022-08-05T15:01:17;4.22;;;1.90;;
37205;SDS011;23099;42.636;23.198;2022-08-05T15:03:43;5.82;;;2.00;;
37205;SDS011;23099;42.636;23.198;2022-08-05T15:06:10;3.58;;;1.80;;
37205;SDS011;23099;42.636;23.198;2022-08-05T15:08:39;4.97;;;2.00;;
37205;SDS011;23099;42.636;23.198;2022-08-05T15:11:06;11.38;;;2.40;;
37205;SDS011;23099;42.636;23.198;2022-08-05T15:13:33;6.57;;;1.73;;
37205;SDS011;23099;42.636;23.198;2022-08-05T15:16:00;4.43;;;2.22;;
37205;SDS011;23099;42.636;23.198;2022-08-05T15:18:27;4.82;;;1.70;;
37205;SDS011;23099;42.636;23.198;2022-08-05T15:20:54;4.65;;;1.98;;
37205;SDS011;23099;42.636;23.198;2022-08-05T15:23:21;5.82;;;1.85;;
37205;SDS011;23099;42.636;23.198;2022-08-05T15:25:49;5.07;;;2.05;;
37205;SDS011;23099;42.636;23.198;2022-08-05T15:28:15;5.93;;;1.98;;
37205;SDS011;23099;42.636;23.198;2022-08-05T15:30:42;3.75;;;1.70;;
37205;SDS011;23099;42.636;23.198;2022-08-05T15:33:10;4.03;;;2.05;;
37205;SDS011;23099;42.636;23.198;2022-08-05T15:35:36;4.75;;;1.90;;
37205;SDS011;23099;42.636;23.198;2022-08-05T15:38:03;4.15;;;1.92;;
37205;SDS011;23099;42.636;23.198;2022-08-05T15:40:30;5.72;;;1.88;;
37205;SDS011;23099;42.636;23.198;2022-08-05T15:42:58;5.00;;;2.10;;
37205;SDS011;23099;42.636;23.198;2022-08-05T15:45:25;11.15;;;2.55;;
37205;SDS011;23099;42.636;23.198;2022-08-05T15:47:53;3.40;;;1.67;;
37205;SDS011;23099;42.636;23.198;2022-08-05T15:50:19;5.82;;;1.52;;
37205;SDS011;23099;42.636;23.198;2022-08-05T15:52:46;3.85;;;1.98;;
37205;SDS011;23099;42.636;23.198;2022-08-05T15:55:15;5.15;;;1.77;;
37205;SDS011;23099;42.636;23.198;2022-08-05T15:57:42;7.57;;;3.63;;
37205;SDS011;23099;42.636;23.198;2022-08-05T16:00:12;8.23;;;3.70;;
37205;SDS011;23099;42.636;23.198;2022-08-05T16:02:41;8.07;;;6.07;;
37205;SDS011;23099;42.636;23.198;2022-08-05T16:05:08;5.88;;;2.65;;
37205;SDS011;23099;42.636;23.198;2022-08-05T16:07:35;5.47;;;1.97;;
37205;SDS011;23099;42.636;23.198;2022-08-05T16:10:02;4.25;;;1.52;;
37205;SDS011;23099;42.636;23.198;2022-08-05T16:12:29;7.57;;;1.70;;
37205;SDS011;23099;42.636;23.198;2022-08-05T16:14:56;4.13;;;1.67;;
37205;SDS011;23099;42.636;23.198;2022-08-05T16:17:24;6.05;;;1.95;;
37205;SDS011;23099;42.636;23.198;2022-08-05T16:19:51;5.20;;;1.73;;
37205;SDS011;23099;42.636;23.198;2022-08-05T16:22:17;5.28;;;2.03;;
37205;SDS011;23099;42.636;23.198;2022-08-05T16:24:44;5.78;;;4.18;;
37205;SDS011;23099;42.636;23.198;2022-08-05T16:27:11;4.40;;;1.85;;
37205;SDS011;23099;42.636;23.198;2022-08-05T16:29:38;3.88;;;1.80;;
37205;SDS011;23099;42.636;23.198;2022-08-05T16:32:05;6.88;;;1.88;;
37205;SDS011;23099;42.636;23.198;2022-08-05T16:34:33;5.27;;;1.73;;
37205;SDS011;23099;42.636;23.198;2022-08-05T16:37:00;4.65;;;1.85;;
37205;SDS011;23099;42.636;23.198;2022-08-05T16:39:26;4.28;;;1.88;;
37205;SDS011;23099;42.636;23.198;2022-08-05T16:41:53;4.03;;;1.90;;
37205;SDS011;23099;42.636;23.198;2022-08-05T16:44:20;3.17;;;1.80;;
37205;SDS011;23099;42.636;23.198;2022-08-05T16:49:16;6.88;;;2.85;;
37205;SDS011;23099;42.636;23.198;2022-08-05T16:51:44;4.10;;;2.00;;
37205;SDS011;23099;42.636;23.198;2022-08-05T16:54:12;6.57;;;2.20;;
37205;SDS011;23099;42.636;23.198;2022-08-05T16:56:39;4.00;;;2.30;;
37205;SDS011;23099;42.636;23.198;2022-08-05T16:59:06;6.03;;;2.30;;
37205;SDS011;23099;42.636;23.198;2022-08-05T17:01:34;6.90;;;2.25;;
37205;SDS011;23099;42.636;23.198;2022-08-05T17:04:02;6.53;;;2.40;;
37205;SDS011;23099;42.636;23.198;2022-08-05T17:06:29;4.13;;;1.90;;
37205;SDS011;23099;42.636;23.198;2022-08-05T17:08:58;5.07;;;2.30;;
37205;SDS011;23099;42.636;23.198;2022-08-05T17:11:24;5.15;;;2.10;;
37205;SDS011;23099;42.636;23.198;2022-08-05T17:13:53;5.93;;;2.28;;
37205;SDS011;23099;42.636;23.198;2022-08-05T17:16:20;4.90;;;1.92;;
37205;SDS011;23099;42.636;23.198;2022-08-05T17:18:46;5.85;;;2.20;;
37205;SDS011;23099;42.636;23.198;2022-08-05T17:21:16;4.95;;;2.20;;
37205;SDS011;23099;42.636;23.198;2022-08-05T17:23:42;4.30;;;1.85;;
37205;SDS011;23099;42.636;23.198;2022-08-05T17:26:10;5.80;;;2.55;;
37205;SDS011;23099;42.636;23.198;2022-08-05T17:31:04;5.85;;;2.20;;
37205;SDS011;23099;42.636;23.198;2022-08-05T17:33:31;6.75;;;2.00;;
37205;SDS011;23099;42.636;23.198;2022-08-05T17:35:57;3.72;;;1.90;;
37205;SDS011;23099;42.636;23.198;2022-08-05T17:38:24;5.40;;;1.80;;
37205;SDS011;23099;42.636;23.198;2022-08-05T17:40:51;5.10;;;1.98;;
37205;SDS011;23099;42.636;23.198;2022-08-05T17:43:19;3.72;;;2.00;;
37205;SDS011;23099;42.636;23.198;2022-08-05T17:48:12;4.30;;;1.70;;
37205;SDS011;23099;42.636;23.198;2022-08-05T17:50:39;5.55;;;1.92;;
37205;SDS011;23099;42.636;23.198;2022-08-05T17:53:08;5.60;;;1.90;;
37205;SDS011;23099;42.636;23.198;2022-08-05T17:55:36;3.90;;;1.75;;
37205;SDS011;23099;42.636;23.198;2022-08-05T17:58:03;3.67;;;1.75;;
37205;SDS011;23099;42.636;23.198;2022-08-05T18:00:31;6.05;;;1.98;;
37205;SDS011;23099;42.636;23.198;2022-08-05T18:05:25;6.43;;;2.00;;
37205;SDS011;23099;42.636;23.198;2022-08-05T18:07:51;7.70;;;2.15;;
37205;SDS011;23099;42.636;23.198;2022-08-05T18:10:18;4.05;;;2.17;;
37205;SDS011;23099;42.636;23.198;2022-08-05T18:12:45;4.18;;;2.08;;
37205;SDS011;23099;42.636;23.198;2022-08-05T18:15:11;4.05;;;2.20;;
37205;SDS011;23099;42.636;23.198;2022-08-05T18:17:40;4.28;;;1.85;;
37205;SDS011;23099;42.636;23.198;2022-08-05T18:22:35;3.58;;;1.90;;
37205;SDS011;23099;42.636;23.198;2022-08-05T18:25:02;5.28;;;2.40;;
37205;SDS011;23099;42.636;23.198;2022-08-05T18:27:30;4.32;;;2.03;;
37205;SDS011;23099;42.636;23.198;2022-08-05T18:29:57;5.28;;;2.25;;
37205;SDS011;23099;42.636;23.198;2022-08-05T18:32:24;5.45;;;2.30;;
37205;SDS011;23099;42.636;23.198;2022-08-05T18:34:52;6.80;;;2.22;;
37205;SDS011;23099;42.636;23.198;2022-08-05T18:37:18;4.88;;;2.40;;
37205;SDS011;23099;42.636;23.198;2022-08-05T18:39:45;6.22;;;2.45;;
37205;SDS011;23099;42.636;23.198;2022-08-05T18:42:12;4.45;;;2.35;;
37205;SDS011;23099;42.636;23.198;2022-08-05T18:44:39;4.72;;;1.98;;
37205;SDS011;23099;42.636;23.198;2022-08-05T18:47:05;4.72;;;2.25;;
37205;SDS011;23099;42.636;23.198;2022-08-05T18:49:32;3.83;;;2.20;;
37205;SDS011;23099;42.636;23.198;2022-08-05T18:52:18;6.05;;;2.53;;
37205;SDS011;23099;42.636;23.198;2022-08-05T18:55:07;5.05;;;2.15;;
37205;SDS011;23099;42.636;23.198;2022-08-05T18:57:35;4.32;;;2.50;;
37205;SDS011;23099;42.636;23.198;2022-08-05T19:00:03;4.43;;;2.38;;
37205;SDS011;23099;42.636;23.198;2022-08-05T19:02:31;5.20;;;2.60;;
37205;SDS011;23099;42.636;23.198;2022-08-05T19:04:58;4.53;;;2.42;;
37205;SDS011;23099;42.636;23.198;2022-08-05T19:07:28;5.45;;;2.10;;
37205;SDS011;23099;42.636;23.198;2022-08-05T19:09:55;5.50;;;2.10;;
37205;SDS011;23099;42.636;23.198;2022-08-05T19:12:25;4.18;;;2.15;;
37205;SDS011;23099;42.636;23.198;2022-08-05T19:14:51;4.63;;;2.10;;
37205;SDS011;23099;42.636;23.198;2022-08-05T19:17:20;5.55;;;2.67;;
37205;SDS011;23099;42.636;23.198;2022-08-05T19:19:47;4.78;;;2.17;;
37205;SDS011;23099;42.636;23.198;2022-08-05T19:22:14;4.05;;;2.20;;
37205;SDS011;23099;42.636;23.198;2022-08-05T19:24:42;4.80;;;2.13;;
37205;SDS011;23099;42.636;23.198;2022-08-05T19:27:08;4.38;;;2.30;;
37205;SDS011;23099;42.636;23.198;2022-08-05T19:29:36;6.45;;;2.38;;
37205;SDS011;23099;42.636;23.198;2022-08-05T19:32:03;5.75;;;2.22;;
37205;SDS011;23099;42.636;23.198;2022-08-05T19:34:30;6.07;;;2.13;;
37205;SDS011;23099;42.636;23.198;2022-08-05T19:36:58;4.93;;;2.00;;
37205;SDS011;23099;42.636;23.198;2022-08-05T19:39:25;5.70;;;2.30;;
37205;SDS011;23099;42.636;23.198;2022-08-05T19:41:55;4.13;;;1.75;;
37205;SDS011;23099;42.636;23.198;2022-08-05T19:44:22;4.50;;;2.17;;
37205;SDS011;23099;42.636;23.198;2022-08-05T19:46:48;5.63;;;2.05;;
37205;SDS011;23099;42.636;23.198;2022-08-05T19:49:15;5.38;;;2.20;;
37205;SDS011;23099;42.636;23.198;2022-08-05T19:51:42;3.42;;;1.80;;
37205;SDS011;23099;42.636;23.198;2022-08-05T19:54:10;4.03;;;2.10;;
37205;SDS011;23099;42.636;23.198;2022-08-05T19:56:37;4.43;;;2.13;;
37205;SDS011;23099;42.636;23.198;2022-08-05T19:59:05;4.53;;;1.95;;
37205;SDS011;23099;42.636;23.198;2022-08-05T20:01:32;4.70;;;2.38;;
37205;SDS011;23099;42.636;23.198;2022-08-05T20:04:00;4.45;;;2.10;;
37205;SDS011;23099;42.636;23.198;2022-08-05T20:06:27;5.77;;;2.00;;
37205;SDS011;23099;42.636;23.198;2022-08-05T20:08:53;3.53;;;1.80;;
37205;SDS011;23099;42.636;23.198;2022-08-05T20:11:20;4.65;;;2.03;;
37205;SDS011;23099;42.636;23.198;2022-08-05T20:13:48;4.80;;;2.33;;
37205;SDS011;23099;42.636;23.198;2022-08-05T20:16:16;4.63;;;2.13;;
37205;SDS011;23099;42.636;23.198;2022-08-05T20:18:43;5.07;;;2.03;;
37205;SDS011;23099;42.636;23.198;2022-08-05T20:21:10;4.72;;;2.03;;
37205;SDS011;23099;42.636;23.198;2022-08-05T20:23:37;4.32;;;2.20;;
37205;SDS011;23099;42.636;23.198;2022-08-05T20:26:06;4.75;;;2.10;;
37205;SDS011;23099;42.636;23.198;2022-08-05T20:28:33;4.85;;;2.13;;
37205;SDS011;23099;42.636;23.198;2022-08-05T20:31:00;5.03;;;2.10;;
37205;SDS011;23099;42.636;23.198;2022-08-05T20:33:28;4.88;;;2.38;;
37205;SDS011;23099;42.636;23.198;2022-08-05T20:35:57;4.32;;;2.10;;
37205;SDS011;23099;42.636;23.198;2022-08-05T20:38:26;7.85;;;2.35;;
37205;SDS011;23099;42.636;23.198;2022-08-05T20:40:53;5.70;;;2.05;;
37205;SDS011;23099;42.636;23.198;2022-08-05T20:43:20;4.38;;;1.63;;
37205;SDS011;23099;42.636;23.198;2022-08-05T20:45:47;7.40;;;1.88;;
37205;SDS011;23099;42.636;23.198;2022-08-05T20:48:14;5.75;;;2.10;;
37205;SDS011;23099;42.636;23.198;2022-08-05T20:50:42;3.92;;;1.95;;
37205;SDS011;23099;42.636;23.198;2022-08-05T20:55:35;5.07;;;1.85;;
37205;SDS011;23099;42.636;23.198;2022-08-05T20:58:02;4.72;;;2.20;;
37205;SDS011;23099;42.636;23.198;2022-08-05T21:00:28;6.15;;;1.90;;
37205;SDS011;23099;42.636;23.198;2022-08-05T21:02:55;4.85;;;1.60;;
37205;SDS011;23099;42.636;23.198;2022-08-05T21:05:24;3.78;;;2.03;;
37205;SDS011;23099;42.636;23.198;2022-08-05T21:07:53;4.43;;;1.83;;
37205;SDS011;23099;42.636;23.198;2022-08-05T21:10:19;3.88;;;1.85;;
37205;SDS011;23099;42.636;23.198;2022-08-05T21:12:46;4.80;;;2.08;;
37205;SDS011;23099;42.636;23.198;2022-08-05T21:15:14;6.20;;;2.00;;
37205;SDS011;23099;42.636;23.198;2022-08-05T21:17:41;5.65;;;1.90;;
37205;SDS011;23099;42.636;23.198;2022-08-05T21:20:08;4.20;;;1.90;;
37205;SDS011;23099;42.636;23.198;2022-08-05T21:22:36;3.45;;;1.60;;
37205;SDS011;23099;42.636;23.198;2022-08-05T21:25:05;4.03;;;1.70;;
37205;SDS011;23099;42.636;23.198;2022-08-05T21:27:33;6.43;;;2.08;;
37205;SDS011;23099;42.636;23.198;2022-08-05T21:30:00;5.07;;;1.75;;
37205;SDS011;23099;42.636;23.198;2022-08-05T21:32:27;4.25;;;1.73;;
37205;SDS011;23099;42.636;23.198;2022-08-05T21:34:54;4.93;;;1.63;;
37205;SDS011;23099;42.636;23.198;2022-08-05T21:37:21;4.78;;;1.58;;
37205;SDS011;23099;42.636;23.198;2022-08-05T21:39:48;7.25;;;1.65;;
37205;SDS011;23099;42.636;23.198;2022-08-05T21:42:16;3.88;;;1.70;;
37205;SDS011;23099;42.636;23.198;2022-08-05T21:44:43;4.70;;;1.77;;